sensor_id;sensor_type;location;lat;lon;timestamp;P1;durP1;ratioP1;P2;durP2;ratioP2
5125;SDS011;63008;53.112;8.896;2023-02-15T00:01:45;32.97;;;22.77;;
5125;SDS011;63008;53.112;8.896;2023-02-15T00:03:49;36.03;;;24.23;;
5125;SDS011;63008;53.112;8.896;2023-02-15T00:05:50;38.50;;;24.67;;
5125;SDS011;63008;53.112;8.896;2023-02-15T00:07:51;32.90;;;22.37;;
5125;SDS011;63008;53.112;8.896;2023-02-15T00:09:52;35.60;;;23.97;;
5125;SDS011;63008;53.112;8.896;2023-02-15T00:11:52;32.50;;;22.70;;
5125;SDS011;63008;53.112;8.896;2023-02-15T00:13:54;33.47;;;22.40;;
5125;SDS011;63008;53.112;8.896;2023-02-15T00:15:59;30.13;;;21.00;;
5125;SDS011;63008;53.112;8.896;2023-02-15T00:18:01;34.00;;;22.93;;
5125;SDS011;63008;53.112;8.896;2023-02-15T00:20:02;28.97;;;22.20;;
5125;SDS011;63008;53.112;8.896;2023-02-15T00:22:03;29.70;;;21.50;;
5125;SDS011;63008;53.112;8.896;2023-02-15T00:24:05;30.90;;;20.50;;
5125;SDS011;63008;53.112;8.896;2023-02-15T00:26:08;31.77;;;22.03;;
5125;SDS011;63008;53.112;8.896;2023-02-15T00:28:12;29.33;;;20.47;;
5125;SDS011;63008;53.112;8.896;2023-02-15T00:30:13;34.20;;;21.90;;
5125;SDS011;63008;53.112;8.896;2023-02-15T00:32:14;29.90;;;20.80;;
5125;SDS011;63008;53.112;8.896;2023-02-15T00:36:23;28.90;;;20.37;;
5125;SDS011;63008;53.112;8.896;2023-02-15T00:38:25;33.23;;;21.43;;
5125;SDS011;63008;53.112;8.896;2023-02-15T00:40:27;30.90;;;22.80;;
5125;SDS011;63008;53.112;8.896;2023-02-15T00:42:28;27.50;;;20.00;;
5125;SDS011;63008;53.112;8.896;2023-02-15T00:44:29;22.73;;;18.70;;
5125;SDS011;63008;53.112;8.896;2023-02-15T00:46:30;25.80;;;19.80;;
5125;SDS011;63008;53.112;8.896;2023-02-15T00:48:31;29.57;;;21.37;;
5125;SDS011;63008;53.112;8.896;2023-02-15T00:50:32;30.37;;;18.70;;
5125;SDS011;63008;53.112;8.896;2023-02-15T00:52:33;26.93;;;19.07;;
5125;SDS011;63008;53.112;8.896;2023-02-15T00:54:34;21.30;;;17.03;;
5125;SDS011;63008;53.112;8.896;2023-02-15T00:56:35;20.23;;;15.50;;
5125;SDS011;63008;53.112;8.896;2023-02-15T00:58:36;19.77;;;13.97;;
5125;SDS011;63008;53.112;8.896;2023-02-15T01:00:37;17.97;;;14.07;;
5125;SDS011;63008;53.112;8.896;2023-02-15T01:02:40;20.63;;;16.17;;
5125;SDS011;63008;53.112;8.896;2023-02-15T01:04:41;28.10;;;19.93;;
5125;SDS011;63008;53.112;8.896;2023-02-15T01:06:41;17.97;;;14.50;;
5125;SDS011;63008;53.112;8.896;2023-02-15T01:08:43;58.17;;;19.17;;
5125;SDS011;63008;53.112;8.896;2023-02-15T01:10:45;55.07;;;23.77;;
5125;SDS011;63008;53.112;8.896;2023-02-15T01:12:47;82.63;;;26.77;;
5125;SDS011;63008;53.112;8.896;2023-02-15T01:14:48;38.30;;;22.87;;
5125;SDS011;63008;53.112;8.896;2023-02-15T01:16:49;72.77;;;23.30;;
5125;SDS011;63008;53.112;8.896;2023-02-15T01:18:50;61.77;;;23.80;;
5125;SDS011;63008;53.112;8.896;2023-02-15T01:20:51;134.13;;;29.17;;
5125;SDS011;63008;53.112;8.896;2023-02-15T01:22:53;89.03;;;31.50;;
5125;SDS011;63008;53.112;8.896;2023-02-15T01:24:55;111.87;;;31.90;;
5125;SDS011;63008;53.112;8.896;2023-02-15T01:26:56;179.63;;;31.23;;
5125;SDS011;63008;53.112;8.896;2023-02-15T01:28:57;97.57;;;30.80;;
5125;SDS011;63008;53.112;8.896;2023-02-15T01:30:58;154.27;;;32.87;;
5125;SDS011;63008;53.112;8.896;2023-02-15T01:32:59;162.70;;;33.23;;
5125;SDS011;63008;53.112;8.896;2023-02-15T01:35:01;134.97;;;32.83;;
5125;SDS011;63008;53.112;8.896;2023-02-15T01:37:02;85.03;;;31.60;;
5125;SDS011;63008;53.112;8.896;2023-02-15T01:39:03;86.10;;;30.97;;
5125;SDS011;63008;53.112;8.896;2023-02-15T01:41:05;105.33;;;28.53;;
5125;SDS011;63008;53.112;8.896;2023-02-15T01:43:39;55.50;;;29.13;;
5125;SDS011;63008;53.112;8.896;2023-02-15T01:45:41;123.13;;;32.03;;
5125;SDS011;63008;53.112;8.896;2023-02-15T01:48:01;59.50;;;29.40;;
5125;SDS011;63008;53.112;8.896;2023-02-15T01:52:16;197.97;;;34.13;;
5125;SDS011;63008;53.112;8.896;2023-02-15T01:54:22;276.53;;;35.60;;
5125;SDS011;63008;53.112;8.896;2023-02-15T01:56:29;245.87;;;38.60;;
5125;SDS011;63008;53.112;8.896;2023-02-15T01:58:33;94.73;;;31.83;;
5125;SDS011;63008;53.112;8.896;2023-02-15T02:00:36;85.93;;;31.07;;
5125;SDS011;63008;53.112;8.896;2023-02-15T02:02:37;93.53;;;31.73;;
5125;SDS011;63008;53.112;8.896;2023-02-15T02:04:42;328.73;;;41.53;;
5125;SDS011;63008;53.112;8.896;2023-02-15T02:06:48;115.20;;;31.30;;
5125;SDS011;63008;53.112;8.896;2023-02-15T02:08:50;90.27;;;31.23;;
5125;SDS011;63008;53.112;8.896;2023-02-15T02:10:52;91.40;;;32.30;;
5125;SDS011;63008;53.112;8.896;2023-02-15T02:12:57;102.63;;;31.87;;
5125;SDS011;63008;53.112;8.896;2023-02-15T02:15:00;303.03;;;40.97;;
5125;SDS011;63008;53.112;8.896;2023-02-15T02:19:37;186.33;;;33.70;;
5125;SDS011;63008;53.112;8.896;2023-02-15T02:27:29;295.33;;;40.60;;
5125;SDS011;63008;53.112;8.896;2023-02-15T02:39:37;106.27;;;30.80;;
5125;SDS011;63008;53.112;8.896;2023-02-15T02:41:54;341.00;;;38.77;;
5125;SDS011;63008;53.112;8.896;2023-02-15T02:44:04;132.80;;;30.80;;
5125;SDS011;63008;53.112;8.896;2023-02-15T02:46:21;141.17;;;31.80;;
5125;SDS011;63008;53.112;8.896;2023-02-15T02:48:28;155.40;;;31.40;;
5125;SDS011;63008;53.112;8.896;2023-02-15T02:50:32;308.00;;;40.43;;
5125;SDS011;63008;53.112;8.896;2023-02-15T02:52:38;59.80;;;28.37;;
5125;SDS011;63008;53.112;8.896;2023-02-15T02:54:41;147.47;;;28.60;;
5125;SDS011;63008;53.112;8.896;2023-02-15T02:56:43;178.97;;;30.33;;
5125;SDS011;63008;53.112;8.896;2023-02-15T02:58:51;115.37;;;27.90;;
5125;SDS011;63008;53.112;8.896;2023-02-15T03:01:03;268.37;;;35.63;;
5125;SDS011;63008;53.112;8.896;2023-02-15T03:03:12;184.33;;;28.60;;
5125;SDS011;63008;53.112;8.896;2023-02-15T03:05:26;182.77;;;30.17;;
5125;SDS011;63008;53.112;8.896;2023-02-15T03:07:30;141.90;;;30.10;;
5125;SDS011;63008;53.112;8.896;2023-02-15T03:09:36;571.13;;;64.20;;
5125;SDS011;63008;53.112;8.896;2023-02-15T03:11:43;85.87;;;28.20;;
5125;SDS011;63008;53.112;8.896;2023-02-15T03:13:45;125.13;;;29.40;;
5125;SDS011;63008;53.112;8.896;2023-02-15T03:15:49;267.37;;;32.77;;
5125;SDS011;63008;53.112;8.896;2023-02-15T03:18:10;85.97;;;27.63;;
5125;SDS011;63008;53.112;8.896;2023-02-15T03:20:15;236.80;;;33.00;;
5125;SDS011;63008;53.112;8.896;2023-02-15T03:22:26;206.40;;;29.30;;
5125;SDS011;63008;53.112;8.896;2023-02-15T03:27:00;174.83;;;31.07;;
5125;SDS011;63008;53.112;8.896;2023-02-15T03:29:09;113.70;;;30.43;;
5125;SDS011;63008;53.112;8.896;2023-02-15T03:31:12;106.83;;;28.03;;
5125;SDS011;63008;53.112;8.896;2023-02-15T03:33:16;106.37;;;29.40;;
5125;SDS011;63008;53.112;8.896;2023-02-15T03:35:20;122.40;;;28.60;;
5125;SDS011;63008;53.112;8.896;2023-02-15T03:37:26;91.23;;;25.10;;
5125;SDS011;63008;53.112;8.896;2023-02-15T03:39:54;289.93;;;32.30;;
5125;SDS011;63008;53.112;8.896;2023-02-15T03:41:57;205.50;;;28.10;;
5125;SDS011;63008;53.112;8.896;2023-02-15T03:44:06;201.13;;;30.43;;
5125;SDS011;63008;53.112;8.896;2023-02-15T03:48:39;77.37;;;25.87;;
5125;SDS011;63008;53.112;8.896;2023-02-15T03:50:43;232.67;;;31.30;;
5125;SDS011;63008;53.112;8.896;2023-02-15T03:53:03;78.77;;;26.27;;
5125;SDS011;63008;53.112;8.896;2023-02-15T03:55:06;166.87;;;28.60;;
5125;SDS011;63008;53.112;8.896;2023-02-15T03:57:19;91.43;;;25.17;;
5125;SDS011;63008;53.112;8.896;2023-02-15T03:59:40;70.93;;;23.97;;
5125;SDS011;63008;53.112;8.896;2023-02-15T04:02:10;55.23;;;24.37;;
5125;SDS011;63008;53.112;8.896;2023-02-15T04:04:22;42.40;;;21.90;;
5125;SDS011;63008;53.112;8.896;2023-02-15T04:06:26;41.90;;;21.23;;
5125;SDS011;63008;53.112;8.896;2023-02-15T04:08:27;63.07;;;21.37;;
5125;SDS011;63008;53.112;8.896;2023-02-15T04:10:47;50.23;;;19.93;;
5125;SDS011;63008;53.112;8.896;2023-02-15T04:12:56;41.10;;;20.90;;
5125;SDS011;63008;53.112;8.896;2023-02-15T04:14:57;46.93;;;19.03;;
5125;SDS011;63008;53.112;8.896;2023-02-15T04:17:17;87.37;;;20.97;;
5125;SDS011;63008;53.112;8.896;2023-02-15T04:19:18;72.37;;;21.93;;
5125;SDS011;63008;53.112;8.896;2023-02-15T04:21:37;44.93;;;20.90;;
5125;SDS011;63008;53.112;8.896;2023-02-15T04:23:57;39.27;;;20.37;;
5125;SDS011;63008;53.112;8.896;2023-02-15T04:26:16;49.60;;;24.03;;
5125;SDS011;63008;53.112;8.896;2023-02-15T04:28:17;67.00;;;21.97;;
5125;SDS011;63008;53.112;8.896;2023-02-15T04:30:19;63.13;;;21.27;;
5125;SDS011;63008;53.112;8.896;2023-02-15T04:32:22;72.60;;;22.43;;
5125;SDS011;63008;53.112;8.896;2023-02-15T04:34:23;36.60;;;21.07;;
5125;SDS011;63008;53.112;8.896;2023-02-15T04:36:25;42.37;;;19.70;;
5125;SDS011;63008;53.112;8.896;2023-02-15T04:38:26;42.43;;;20.97;;
5125;SDS011;63008;53.112;8.896;2023-02-15T04:40:27;59.00;;;20.37;;
5125;SDS011;63008;53.112;8.896;2023-02-15T04:42:28;66.10;;;20.93;;
5125;SDS011;63008;53.112;8.896;2023-02-15T04:44:29;44.83;;;20.40;;
5125;SDS011;63008;53.112;8.896;2023-02-15T04:46:30;38.73;;;19.13;;
5125;SDS011;63008;53.112;8.896;2023-02-15T04:48:31;39.20;;;19.63;;
5125;SDS011;63008;53.112;8.896;2023-02-15T04:50:32;40.20;;;20.30;;
5125;SDS011;63008;53.112;8.896;2023-02-15T04:52:33;40.63;;;19.90;;
5125;SDS011;63008;53.112;8.896;2023-02-15T04:54:34;39.47;;;19.50;;
5125;SDS011;63008;53.112;8.896;2023-02-15T04:56:35;92.53;;;23.27;;
5125;SDS011;63008;53.112;8.896;2023-02-15T04:58:38;33.37;;;20.07;;
5125;SDS011;63008;53.112;8.896;2023-02-15T05:00:41;30.77;;;21.13;;
5125;SDS011;63008;53.112;8.896;2023-02-15T05:02:42;59.77;;;20.27;;
5125;SDS011;63008;53.112;8.896;2023-02-15T05:04:43;68.30;;;23.00;;
5125;SDS011;63008;53.112;8.896;2023-02-15T05:06:44;44.73;;;21.23;;
5125;SDS011;63008;53.112;8.896;2023-02-15T05:08:45;92.73;;;22.50;;
5125;SDS011;63008;53.112;8.896;2023-02-15T05:10:49;55.23;;;22.90;;
5125;SDS011;63008;53.112;8.896;2023-02-15T05:12:50;131.33;;;25.10;;
5125;SDS011;63008;53.112;8.896;2023-02-15T05:14:53;58.03;;;22.40;;
5125;SDS011;63008;53.112;8.896;2023-02-15T05:16:54;96.77;;;24.20;;
5125;SDS011;63008;53.112;8.896;2023-02-15T05:18:55;106.97;;;25.40;;
5125;SDS011;63008;53.112;8.896;2023-02-15T05:20:56;66.00;;;23.13;;
5125;SDS011;63008;53.112;8.896;2023-02-15T05:22:57;77.30;;;24.63;;
5125;SDS011;63008;53.112;8.896;2023-02-15T05:24:58;116.43;;;23.30;;
5125;SDS011;63008;53.112;8.896;2023-02-15T05:27:18;64.83;;;22.77;;
5125;SDS011;63008;53.112;8.896;2023-02-15T05:29:37;58.03;;;22.37;;
5125;SDS011;63008;53.112;8.896;2023-02-15T05:31:38;396.10;;;34.43;;
5125;SDS011;63008;53.112;8.896;2023-02-15T05:33:40;99.10;;;25.47;;
5125;SDS011;63008;53.112;8.896;2023-02-15T05:35:41;77.13;;;23.30;;
5125;SDS011;63008;53.112;8.896;2023-02-15T05:37:42;79.63;;;22.70;;
5125;SDS011;63008;53.112;8.896;2023-02-15T05:39:43;88.53;;;23.63;;
5125;SDS011;63008;53.112;8.896;2023-02-15T05:41:44;42.57;;;21.33;;
5125;SDS011;63008;53.112;8.896;2023-02-15T05:43:45;58.07;;;21.67;;
5125;SDS011;63008;53.112;8.896;2023-02-15T05:45:47;43.00;;;20.27;;
5125;SDS011;63008;53.112;8.896;2023-02-15T05:47:49;46.40;;;21.50;;
5125;SDS011;63008;53.112;8.896;2023-02-15T05:49:50;41.00;;;19.30;;
5125;SDS011;63008;53.112;8.896;2023-02-15T05:51:51;42.33;;;20.17;;
5125;SDS011;63008;53.112;8.896;2023-02-15T05:53:52;72.37;;;21.70;;
5125;SDS011;63008;53.112;8.896;2023-02-15T05:55:53;73.43;;;22.40;;
5125;SDS011;63008;53.112;8.896;2023-02-15T05:57:59;49.00;;;19.40;;
5125;SDS011;63008;53.112;8.896;2023-02-15T06:00:00;38.73;;;19.43;;
5125;SDS011;63008;53.112;8.896;2023-02-15T06:02:05;165.40;;;25.77;;
5125;SDS011;63008;53.112;8.896;2023-02-15T06:04:07;71.37;;;20.47;;
5125;SDS011;63008;53.112;8.896;2023-02-15T06:06:08;36.83;;;22.17;;
5125;SDS011;63008;53.112;8.896;2023-02-15T06:08:09;65.00;;;20.47;;
5125;SDS011;63008;53.112;8.896;2023-02-15T06:10:10;90.80;;;21.67;;
5125;SDS011;63008;53.112;8.896;2023-02-15T06:12:12;43.07;;;18.73;;
5125;SDS011;63008;53.112;8.896;2023-02-15T06:14:13;30.60;;;21.57;;
5125;SDS011;63008;53.112;8.896;2023-02-15T06:16:14;50.90;;;22.13;;
5125;SDS011;63008;53.112;8.896;2023-02-15T06:18:16;32.00;;;20.83;;
5125;SDS011;63008;53.112;8.896;2023-02-15T06:20:17;33.50;;;19.17;;
5125;SDS011;63008;53.112;8.896;2023-02-15T06:22:18;47.90;;;19.33;;
5125;SDS011;63008;53.112;8.896;2023-02-15T06:24:19;35.17;;;19.97;;
5125;SDS011;63008;53.112;8.896;2023-02-15T06:26:20;51.23;;;20.67;;
5125;SDS011;63008;53.112;8.896;2023-02-15T06:28:21;24.13;;;18.50;;
5125;SDS011;63008;53.112;8.896;2023-02-15T06:30:22;27.40;;;18.77;;
5125;SDS011;63008;53.112;8.896;2023-02-15T06:32:23;27.27;;;19.07;;
5125;SDS011;63008;53.112;8.896;2023-02-15T06:34:24;28.13;;;17.40;;
5125;SDS011;63008;53.112;8.896;2023-02-15T06:36:25;25.43;;;19.00;;
5125;SDS011;63008;53.112;8.896;2023-02-15T06:38:26;27.17;;;19.53;;
5125;SDS011;63008;53.112;8.896;2023-02-15T06:40:27;30.33;;;19.70;;
5125;SDS011;63008;53.112;8.896;2023-02-15T06:42:28;28.57;;;20.30;;
5125;SDS011;63008;53.112;8.896;2023-02-15T06:44:29;28.47;;;19.03;;
5125;SDS011;63008;53.112;8.896;2023-02-15T06:46:30;36.37;;;21.20;;
5125;SDS011;63008;53.112;8.896;2023-02-15T06:48:31;69.47;;;23.00;;
5125;SDS011;63008;53.112;8.896;2023-02-15T06:50:32;42.37;;;21.90;;
5125;SDS011;63008;53.112;8.896;2023-02-15T06:52:33;54.63;;;24.33;;
5125;SDS011;63008;53.112;8.896;2023-02-15T06:54:37;28.93;;;21.20;;
5125;SDS011;63008;53.112;8.896;2023-02-15T06:56:38;25.20;;;20.37;;
5125;SDS011;63008;53.112;8.896;2023-02-15T06:58:39;26.17;;;20.63;;
5125;SDS011;63008;53.112;8.896;2023-02-15T07:00:41;40.53;;;21.20;;
5125;SDS011;63008;53.112;8.896;2023-02-15T07:02:42;79.90;;;23.80;;
5125;SDS011;63008;53.112;8.896;2023-02-15T07:04:43;29.30;;;19.70;;
5125;SDS011;63008;53.112;8.896;2023-02-15T07:06:44;44.33;;;22.87;;
5125;SDS011;63008;53.112;8.896;2023-02-15T07:08:45;41.40;;;21.23;;
5125;SDS011;63008;53.112;8.896;2023-02-15T07:10:48;34.17;;;21.50;;
5125;SDS011;63008;53.112;8.896;2023-02-15T07:12:49;35.93;;;22.00;;
5125;SDS011;63008;53.112;8.896;2023-02-15T07:14:50;30.20;;;22.33;;
5125;SDS011;63008;53.112;8.896;2023-02-15T07:16:51;38.20;;;23.47;;
5125;SDS011;63008;53.112;8.896;2023-02-15T07:18:52;27.97;;;20.57;;
5125;SDS011;63008;53.112;8.896;2023-02-15T07:20:53;45.33;;;23.50;;
5125;SDS011;63008;53.112;8.896;2023-02-15T07:22:54;48.10;;;23.47;;
5125;SDS011;63008;53.112;8.896;2023-02-15T07:24:55;101.37;;;26.20;;
5125;SDS011;63008;53.112;8.896;2023-02-15T07:26:56;41.77;;;24.50;;
5125;SDS011;63008;53.112;8.896;2023-02-15T07:28:58;49.50;;;22.90;;
5125;SDS011;63008;53.112;8.896;2023-02-15T07:31:00;39.03;;;23.20;;
5125;SDS011;63008;53.112;8.896;2023-02-15T07:33:02;37.47;;;22.50;;
5125;SDS011;63008;53.112;8.896;2023-02-15T07:35:22;34.07;;;20.80;;
5125;SDS011;63008;53.112;8.896;2023-02-15T07:37:23;46.43;;;22.93;;
5125;SDS011;63008;53.112;8.896;2023-02-15T07:39:24;47.43;;;21.63;;
5125;SDS011;63008;53.112;8.896;2023-02-15T07:41:25;71.43;;;25.30;;
5125;SDS011;63008;53.112;8.896;2023-02-15T07:43:26;46.60;;;22.20;;
5125;SDS011;63008;53.112;8.896;2023-02-15T07:45:28;39.60;;;20.80;;
5125;SDS011;63008;53.112;8.896;2023-02-15T07:47:29;63.80;;;24.10;;
5125;SDS011;63008;53.112;8.896;2023-02-15T07:49:30;67.00;;;23.87;;
5125;SDS011;63008;53.112;8.896;2023-02-15T07:51:31;60.60;;;23.33;;
5125;SDS011;63008;53.112;8.896;2023-02-15T07:53:32;30.90;;;22.30;;
5125;SDS011;63008;53.112;8.896;2023-02-15T07:55:36;45.67;;;22.40;;
5125;SDS011;63008;53.112;8.896;2023-02-15T07:57:37;31.23;;;22.10;;
5125;SDS011;63008;53.112;8.896;2023-02-15T07:59:41;31.53;;;21.63;;
5125;SDS011;63008;53.112;8.896;2023-02-15T08:01:42;32.03;;;22.73;;
5125;SDS011;63008;53.112;8.896;2023-02-15T08:03:43;32.00;;;22.27;;
5125;SDS011;63008;53.112;8.896;2023-02-15T08:05:44;34.60;;;22.70;;
5125;SDS011;63008;53.112;8.896;2023-02-15T08:07:45;31.77;;;22.10;;
5125;SDS011;63008;53.112;8.896;2023-02-15T08:09:46;30.50;;;22.63;;
5125;SDS011;63008;53.112;8.896;2023-02-15T08:11:47;30.63;;;22.80;;
5125;SDS011;63008;53.112;8.896;2023-02-15T08:13:49;31.07;;;21.40;;
5125;SDS011;63008;53.112;8.896;2023-02-15T08:15:54;30.63;;;21.80;;
5125;SDS011;63008;53.112;8.896;2023-02-15T08:17:55;28.17;;;21.23;;
5125;SDS011;63008;53.112;8.896;2023-02-15T08:19:56;27.30;;;20.77;;
5125;SDS011;63008;53.112;8.896;2023-02-15T08:21:59;27.43;;;21.30;;
5125;SDS011;63008;53.112;8.896;2023-02-15T08:24:02;30.97;;;21.53;;
5125;SDS011;63008;53.112;8.896;2023-02-15T08:26:03;25.63;;;20.33;;
5125;SDS011;63008;53.112;8.896;2023-02-15T08:28:05;25.47;;;21.10;;
5125;SDS011;63008;53.112;8.896;2023-02-15T08:30:06;27.77;;;21.30;;
5125;SDS011;63008;53.112;8.896;2023-02-15T08:32:09;25.60;;;20.37;;
5125;SDS011;63008;53.112;8.896;2023-02-15T08:34:12;26.43;;;20.13;;
5125;SDS011;63008;53.112;8.896;2023-02-15T08:36:16;23.53;;;18.60;;
5125;SDS011;63008;53.112;8.896;2023-02-15T08:38:19;23.60;;;19.23;;
5125;SDS011;63008;53.112;8.896;2023-02-15T08:40:20;27.17;;;20.50;;
5125;SDS011;63008;53.112;8.896;2023-02-15T08:42:21;23.87;;;18.13;;
5125;SDS011;63008;53.112;8.896;2023-02-15T08:44:22;25.23;;;19.20;;
5125;SDS011;63008;53.112;8.896;2023-02-15T08:46:24;23.60;;;18.77;;
5125;SDS011;63008;53.112;8.896;2023-02-15T08:48:26;22.30;;;18.83;;
5125;SDS011;63008;53.112;8.896;2023-02-15T08:50:28;22.57;;;18.23;;
5125;SDS011;63008;53.112;8.896;2023-02-15T08:52:28;19.37;;;16.37;;
5125;SDS011;63008;53.112;8.896;2023-02-15T08:54:29;19.47;;;16.00;;
5125;SDS011;63008;53.112;8.896;2023-02-15T08:56:34;18.70;;;15.20;;
5125;SDS011;63008;53.112;8.896;2023-02-15T08:58:37;21.17;;;14.80;;
5125;SDS011;63008;53.112;8.896;2023-02-15T09:00:38;18.90;;;13.83;;
5125;SDS011;63008;53.112;8.896;2023-02-15T09:02:39;21.20;;;14.17;;
5125;SDS011;63008;53.112;8.896;2023-02-15T09:04:40;20.23;;;14.80;;
5125;SDS011;63008;53.112;8.896;2023-02-15T09:06:42;18.07;;;13.40;;
5125;SDS011;63008;53.112;8.896;2023-02-15T09:08:44;19.07;;;14.83;;
5125;SDS011;63008;53.112;8.896;2023-02-15T09:10:45;18.90;;;14.27;;
5125;SDS011;63008;53.112;8.896;2023-02-15T09:12:46;17.00;;;14.30;;
5125;SDS011;63008;53.112;8.896;2023-02-15T09:14:47;19.23;;;13.27;;
5125;SDS011;63008;53.112;8.896;2023-02-15T09:16:48;16.00;;;13.43;;
5125;SDS011;63008;53.112;8.896;2023-02-15T09:18:51;16.60;;;13.53;;
5125;SDS011;63008;53.112;8.896;2023-02-15T09:20:52;16.37;;;14.00;;
5125;SDS011;63008;53.112;8.896;2023-02-15T09:22:53;17.30;;;13.67;;
5125;SDS011;63008;53.112;8.896;2023-02-15T09:24:54;18.00;;;14.20;;
5125;SDS011;63008;53.112;8.896;2023-02-15T09:26:55;20.40;;;15.70;;
5125;SDS011;63008;53.112;8.896;2023-02-15T09:28:57;23.77;;;16.67;;
5125;SDS011;63008;53.112;8.896;2023-02-15T09:31:05;17.33;;;14.73;;
5125;SDS011;63008;53.112;8.896;2023-02-15T09:33:07;21.30;;;15.83;;
5125;SDS011;63008;53.112;8.896;2023-02-15T09:35:08;20.90;;;15.80;;
5125;SDS011;63008;53.112;8.896;2023-02-15T09:37:09;20.30;;;14.93;;
5125;SDS011;63008;53.112;8.896;2023-02-15T09:39:21;19.60;;;14.73;;
5125;SDS011;63008;53.112;8.896;2023-02-15T09:41:28;23.40;;;15.63;;
5125;SDS011;63008;53.112;8.896;2023-02-15T09:46:21;17.83;;;14.67;;
5125;SDS011;63008;53.112;8.896;2023-02-15T09:48:37;16.20;;;14.00;;
5125;SDS011;63008;53.112;8.896;2023-02-15T09:50:47;20.30;;;15.03;;
5125;SDS011;63008;53.112;8.896;2023-02-15T09:58:06;21.03;;;15.60;;
5125;SDS011;63008;53.112;8.896;2023-02-15T10:07:52;21.50;;;15.00;;
5125;SDS011;63008;53.112;8.896;2023-02-15T10:13:39;22.60;;;16.30;;
5125;SDS011;63008;53.112;8.896;2023-02-15T10:16:04;20.53;;;15.67;;
5125;SDS011;63008;53.112;8.896;2023-02-15T10:22:42;21.77;;;17.10;;
5125;SDS011;63008;53.112;8.896;2023-02-15T10:25:28;20.67;;;16.60;;
5125;SDS011;63008;53.112;8.896;2023-02-15T10:27:46;19.53;;;15.97;;
5125;SDS011;63008;53.112;8.896;2023-02-15T10:29:52;23.33;;;17.20;;
5125;SDS011;63008;53.112;8.896;2023-02-15T10:34:22;21.73;;;17.10;;
5125;SDS011;63008;53.112;8.896;2023-02-15T10:36:49;24.80;;;17.43;;
5125;SDS011;63008;53.112;8.896;2023-02-15T10:41:21;24.70;;;17.57;;
5125;SDS011;63008;53.112;8.896;2023-02-15T10:48:47;22.87;;;17.73;;
5125;SDS011;63008;53.112;8.896;2023-02-15T10:51:02;20.17;;;17.17;;
5125;SDS011;63008;53.112;8.896;2023-02-15T10:53:13;24.83;;;17.73;;
5125;SDS011;63008;53.112;8.896;2023-02-15T10:57:55;23.40;;;17.30;;
5125;SDS011;63008;53.112;8.896;2023-02-15T11:00:27;29.40;;;18.17;;
5125;SDS011;63008;53.112;8.896;2023-02-15T11:05:16;24.33;;;19.40;;
5125;SDS011;63008;53.112;8.896;2023-02-15T11:07:32;27.10;;;18.40;;
5125;SDS011;63008;53.112;8.896;2023-02-15T11:09:46;22.97;;;18.23;;
5125;SDS011;63008;53.112;8.896;2023-02-15T11:11:50;22.93;;;16.57;;
5125;SDS011;63008;53.112;8.896;2023-02-15T11:13:56;22.50;;;16.77;;
5125;SDS011;63008;53.112;8.896;2023-02-15T11:16:15;23.43;;;17.97;;
5125;SDS011;63008;53.112;8.896;2023-02-15T11:20:38;22.50;;;18.40;;
5125;SDS011;63008;53.112;8.896;2023-02-15T11:22:47;23.20;;;18.30;;
5125;SDS011;63008;53.112;8.896;2023-02-15T11:24:50;23.87;;;17.10;;
5125;SDS011;63008;53.112;8.896;2023-02-15T11:27:05;22.30;;;17.07;;
5125;SDS011;63008;53.112;8.896;2023-02-15T11:31:19;23.00;;;17.50;;
5125;SDS011;63008;53.112;8.896;2023-02-15T11:33:35;22.27;;;18.00;;
5125;SDS011;63008;53.112;8.896;2023-02-15T11:36:15;22.10;;;17.07;;
5125;SDS011;63008;53.112;8.896;2023-02-15T11:38:21;26.40;;;18.17;;
5125;SDS011;63008;53.112;8.896;2023-02-15T11:40:40;25.47;;;18.20;;
5125;SDS011;63008;53.112;8.896;2023-02-15T11:42:47;24.27;;;19.60;;
5125;SDS011;63008;53.112;8.896;2023-02-15T11:47:15;24.23;;;18.73;;
5125;SDS011;63008;53.112;8.896;2023-02-15T11:49:21;25.47;;;20.10;;
5125;SDS011;63008;53.112;8.896;2023-02-15T11:51:24;24.23;;;18.40;;
5125;SDS011;63008;53.112;8.896;2023-02-15T11:53:32;23.10;;;18.63;;
5125;SDS011;63008;53.112;8.896;2023-02-15T11:55:34;25.00;;;19.00;;
5125;SDS011;63008;53.112;8.896;2023-02-15T11:57:39;22.83;;;18.80;;
5125;SDS011;63008;53.112;8.896;2023-02-15T11:59:47;25.83;;;20.17;;
5125;SDS011;63008;53.112;8.896;2023-02-15T12:01:54;28.00;;;20.53;;
5125;SDS011;63008;53.112;8.896;2023-02-15T12:03:56;28.10;;;19.77;;
5125;SDS011;63008;53.112;8.896;2023-02-15T12:06:01;25.50;;;19.73;;
5125;SDS011;63008;53.112;8.896;2023-02-15T12:08:09;34.20;;;21.00;;
5125;SDS011;63008;53.112;8.896;2023-02-15T12:10:25;30.53;;;21.83;;
5125;SDS011;63008;53.112;8.896;2023-02-15T12:12:29;25.53;;;20.10;;
5125;SDS011;63008;53.112;8.896;2023-02-15T12:14:46;23.03;;;20.27;;
5125;SDS011;63008;53.112;8.896;2023-02-15T12:16:49;29.90;;;21.60;;
5125;SDS011;63008;53.112;8.896;2023-02-15T12:18:57;24.83;;;19.03;;
5125;SDS011;63008;53.112;8.896;2023-02-15T12:21:02;23.20;;;19.00;;
5125;SDS011;63008;53.112;8.896;2023-02-15T12:23:12;26.13;;;20.27;;
5125;SDS011;63008;53.112;8.896;2023-02-15T12:25:33;26.03;;;20.73;;
5125;SDS011;63008;53.112;8.896;2023-02-15T12:27:37;23.23;;;18.07;;
5125;SDS011;63008;53.112;8.896;2023-02-15T12:29:45;24.80;;;19.30;;
5125;SDS011;63008;53.112;8.896;2023-02-15T12:31:50;25.83;;;19.10;;
5125;SDS011;63008;53.112;8.896;2023-02-15T12:33:53;30.97;;;19.30;;
5125;SDS011;63008;53.112;8.896;2023-02-15T12:35:59;27.50;;;19.20;;
5125;SDS011;63008;53.112;8.896;2023-02-15T12:38:09;23.87;;;19.20;;
5125;SDS011;63008;53.112;8.896;2023-02-15T12:40:24;27.23;;;20.17;;
5125;SDS011;63008;53.112;8.896;2023-02-15T12:42:40;26.60;;;19.20;;
5125;SDS011;63008;53.112;8.896;2023-02-15T12:45:00;25.30;;;19.63;;
5125;SDS011;63008;53.112;8.896;2023-02-15T12:49:18;26.00;;;20.07;;
5125;SDS011;63008;53.112;8.896;2023-02-15T12:51:20;23.73;;;19.63;;
5125;SDS011;63008;53.112;8.896;2023-02-15T12:55:30;28.03;;;21.03;;
5125;SDS011;63008;53.112;8.896;2023-02-15T12:57:31;25.03;;;20.50;;
5125;SDS011;63008;53.112;8.896;2023-02-15T12:59:33;24.60;;;20.23;;
5125;SDS011;63008;53.112;8.896;2023-02-15T13:01:34;27.40;;;20.47;;
5125;SDS011;63008;53.112;8.896;2023-02-15T13:06:15;30.73;;;19.90;;
5125;SDS011;63008;53.112;8.896;2023-02-15T13:08:19;27.80;;;19.30;;
5125;SDS011;63008;53.112;8.896;2023-02-15T13:10:29;23.40;;;19.43;;
5125;SDS011;63008;53.112;8.896;2023-02-15T13:12:34;30.50;;;20.07;;
5125;SDS011;63008;53.112;8.896;2023-02-15T13:14:35;24.30;;;19.83;;
5125;SDS011;63008;53.112;8.896;2023-02-15T13:16:38;27.43;;;20.67;;
5125;SDS011;63008;53.112;8.896;2023-02-15T13:18:42;26.77;;;21.17;;
5125;SDS011;63008;53.112;8.896;2023-02-15T13:20:44;25.97;;;20.77;;
5125;SDS011;63008;53.112;8.896;2023-02-15T13:22:47;29.90;;;20.43;;
5125;SDS011;63008;53.112;8.896;2023-02-15T13:25:32;28.20;;;21.80;;
5125;SDS011;63008;53.112;8.896;2023-02-15T13:27:19;26.70;;;21.63;;
5125;SDS011;63008;53.112;8.896;2023-02-15T13:29:25;32.53;;;21.40;;
5125;SDS011;63008;53.112;8.896;2023-02-15T13:31:28;28.03;;;22.33;;
5125;SDS011;63008;53.112;8.896;2023-02-15T13:33:36;27.70;;;20.93;;
5125;SDS011;63008;53.112;8.896;2023-02-15T13:35:40;27.97;;;21.87;;
5125;SDS011;63008;53.112;8.896;2023-02-15T13:40:22;28.03;;;22.30;;
5125;SDS011;63008;53.112;8.896;2023-02-15T13:42:36;30.47;;;22.47;;
5125;SDS011;63008;53.112;8.896;2023-02-15T13:44:52;29.93;;;23.30;;